sensor_id;sensor_type;location;lat;lon;timestamp;pressure;altitude;pressure_sealevel;temperature;humidity
55077;BME280;40971;44.702;11.030;2023-05-25T00:03:30;101294.91;;;17.23;87.04
55077;BME280;40971;44.702;11.030;2023-05-25T00:13:32;101286.91;;;17.23;86.01
55077;BME280;40971;44.702;11.030;2023-05-25T00:23:34;101317.44;;;17.27;85.58
55077;BME280;40971;44.702;11.030;2023-05-25T00:33:36;101322.13;;;17.25;85.13
55077;BME280;40971;44.702;11.030;2023-05-25T00:43:37;101307.03;;;17.32;85.42
55077;BME280;40971;44.702;11.030;2023-05-25T00:53:38;101313.94;;;17.26;85.58
55077;BME280;40971;44.702;11.030;2023-05-25T01:03:42;101320.66;;;17.22;86.09
55077;BME280;40971;44.702;11.030;2023-05-25T01:13:48;101329.31;;;17.31;85.78
55077;BME280;40971;44.702;11.030;2023-05-25T01:24:06;101329.13;;;17.32;85.90
55077;BME280;40971;44.702;11.030;2023-05-25T01:34:12;101334.63;;;17.31;85.92
55077;BME280;40971;44.702;11.030;2023-05-25T01:44:14;101345.38;;;17.23;86.63
55077;BME280;40971;44.702;11.030;2023-05-25T01:54:18;101355.22;;;17.22;86.41
55077;BME280;40971;44.702;11.030;2023-05-25T02:04:20;101366.41;;;17.39;86.13
55077;BME280;40971;44.702;11.030;2023-05-25T02:14:26;101377.53;;;17.49;86.10
55077;BME280;40971;44.702;11.030;2023-05-25T02:24:29;101370.44;;;17.56;86.25
55077;BME280;40971;44.702;11.030;2023-05-25T02:34:31;101366.16;;;17.55;85.95
55077;BME280;40971;44.702;11.030;2023-05-25T02:44:36;101358.28;;;17.47;86.45
55077;BME280;40971;44.702;11.030;2023-05-25T02:54:38;101369.16;;;17.52;86.71
55077;BME280;40971;44.702;11.030;2023-05-25T03:04:41;101381.56;;;17.45;87.23
55077;BME280;40971;44.702;11.030;2023-05-25T03:14:43;101391.78;;;17.41;87.89
55077;BME280;40971;44.702;11.030;2023-05-25T03:24:45;101417.28;;;17.57;87.37
55077;BME280;40971;44.702;11.030;2023-05-25T03:34:50;101421.34;;;17.53;87.63
55077;BME280;40971;44.702;11.030;2023-05-25T03:44:52;101428.75;;;17.58;87.73
55077;BME280;40971;44.702;11.030;2023-05-25T03:54:55;101431.53;;;17.50;87.71
55077;BME280;40971;44.702;11.030;2023-05-25T04:04:59;101427.53;;;17.39;87.26
55077;BME280;40971;44.702;11.030;2023-05-25T04:15:04;101454.41;;;17.51;88.18
55077;BME280;40971;44.702;11.030;2023-05-25T04:25:09;101488.34;;;17.63;87.89
55077;BME280;40971;44.702;11.030;2023-05-25T04:35:13;101490.78;;;17.65;88.78
55077;BME280;40971;44.702;11.030;2023-05-25T04:45:16;101515.16;;;17.68;88.51
55077;BME280;40971;44.702;11.030;2023-05-25T04:55:18;101508.03;;;17.69;86.98
55077;BME280;40971;44.702;11.030;2023-05-25T05:05:22;101511.72;;;17.53;88.18
55077;BME280;40971;44.702;11.030;2023-05-25T05:15:23;101537.41;;;17.82;86.88
55077;BME280;40971;44.702;11.030;2023-05-25T05:25:25;101559.56;;;18.59;84.53
55077;BME280;40971;44.702;11.030;2023-05-25T05:35:27;101565.66;;;18.81;82.87
55077;BME280;40971;44.702;11.030;2023-05-25T05:45:31;101581.56;;;18.68;83.82
55077;BME280;40971;44.702;11.030;2023-05-25T05:55:33;101584.41;;;18.66;84.28
55077;BME280;40971;44.702;11.030;2023-05-25T06:05:35;101597.63;;;18.87;84.24
55077;BME280;40971;44.702;11.030;2023-05-25T06:15:38;101604.41;;;19.24;81.45
55077;BME280;40971;44.702;11.030;2023-05-25T06:25:40;101616.56;;;19.33;82.28
55077;BME280;40971;44.702;11.030;2023-05-25T06:35:43;101621.66;;;19.28;83.49
55077;BME280;40971;44.702;11.030;2023-05-25T06:45:45;101635.75;;;19.50;81.29
55077;BME280;40971;44.702;11.030;2023-05-25T06:55:50;101641.81;;;19.37;83.02
55077;BME280;40971;44.702;11.030;2023-05-25T07:05:52;101659.75;;;19.50;82.01
55077;BME280;40971;44.702;11.030;2023-05-25T07:15:54;101659.75;;;19.50;82.55
55077;BME280;40971;44.702;11.030;2023-05-25T07:25:57;101654.06;;;19.66;82.54
55077;BME280;40971;44.702;11.030;2023-05-25T07:35:59;101658.13;;;20.22;79.25
55077;BME280;40971;44.702;11.030;2023-05-25T07:46:01;101667.59;;;20.38;78.22
55077;BME280;40971;44.702;11.030;2023-05-25T07:56:04;101686.53;;;20.56;76.68
55077;BME280;40971;44.702;11.030;2023-05-25T08:06:06;101682.84;;;20.77;76.13
55077;BME280;40971;44.702;11.030;2023-05-25T08:16:11;101693.53;;;20.70;76.32
55077;BME280;40971;44.702;11.030;2023-05-25T08:26:16;101719.81;;;20.60;74.83
55077;BME280;40971;44.702;11.030;2023-05-25T08:36:17;101731.34;;;20.61;75.48
55077;BME280;40971;44.702;11.030;2023-05-25T08:46:28;101736.28;;;21.03;72.74
55077;BME280;40971;44.702;11.030;2023-05-25T08:56:35;101742.44;;;21.50;71.02
55077;BME280;40971;44.702;11.030;2023-05-25T09:06:39;101747.06;;;22.62;66.25
55077;BME280;40971;44.702;11.030;2023-05-25T09:16:42;101746.66;;;22.59;64.75
55077;BME280;40971;44.702;11.030;2023-05-25T09:26:44;101750.19;;;22.91;65.06
55077;BME280;40971;44.702;11.030;2023-05-25T09:36:49;101775.53;;;23.62;60.44
55077;BME280;40971;44.702;11.030;2023-05-25T09:46:50;101781.47;;;22.72;63.01
55077;BME280;40971;44.702;11.030;2023-05-25T09:56:52;101787.78;;;22.46;62.79
55077;BME280;40971;44.702;11.030;2023-05-25T10:06:54;101790.72;;;22.38;63.47
55077;BME280;40971;44.702;11.030;2023-05-25T10:16:58;101791.72;;;22.82;60.90
55077;BME280;40971;44.702;11.030;2023-05-25T10:27:02;101776.88;;;23.04;61.04
55077;BME280;40971;44.702;11.030;2023-05-25T10:37:05;101770.75;;;22.34;62.83
55077;BME280;40971;44.702;11.030;2023-05-25T10:47:08;101773.59;;;23.27;59.51
55077;BME280;40971;44.702;11.030;2023-05-25T10:57:11;101777.16;;;23.82;58.52
55077;BME280;40971;44.702;11.030;2023-05-25T11:07:16;101758.47;;;24.94;57.00
55077;BME280;40971;44.702;11.030;2023-05-25T11:17:20;101757.91;;;26.01;52.06
55077;BME280;40971;44.702;11.030;2023-05-25T11:27:27;101752.03;;;24.42;56.38
55077;BME280;40971;44.702;11.030;2023-05-25T11:37:28;101745.59;;;26.05;53.31
55077;BME280;40971;44.702;11.030;2023-05-25T11:47:32;101731.19;;;24.79;58.11
55077;BME280;40971;44.702;11.030;2023-05-25T11:57:34;101709.94;;;25.87;53.98
55077;BME280;40971;44.702;11.030;2023-05-25T12:07:41;101698.88;;;24.56;56.09
55077;BME280;40971;44.702;11.030;2023-05-25T12:17:44;101698.56;;;25.85;53.72
55077;BME280;40971;44.702;11.030;2023-05-25T12:27:46;101686.63;;;25.81;54.51
55077;BME280;40971;44.702;11.030;2023-05-25T12:37:47;101682.19;;;27.36;48.82
55077;BME280;40971;44.702;11.030;2023-05-25T12:47:49;101674.69;;;26.83;52.49
55077;BME280;40971;44.702;11.030;2023-05-25T12:58:04;101663.44;;;25.40;53.57
55077;BME280;40971;44.702;11.030;2023-05-25T13:08:06;101652.47;;;26.59;52.07
55077;BME280;40971;44.702;11.030;2023-05-25T13:18:07;101646.59;;;25.73;54.80
55077;BME280;40971;44.702;11.030;2023-05-25T13:28:08;101641.25;;;26.51;51.13
55077;BME280;40971;44.702;11.030;2023-05-25T13:38:10;101643.13;;;26.67;47.26
55077;BME280;40971;44.702;11.030;2023-05-25T13:48:11;101635.38;;;26.21;49.15
55077;BME280;40971;44.702;11.030;2023-05-25T13:58:12;101643.19;;;25.37;49.86
55077;BME280;40971;44.702;11.030;2023-05-25T14:08:14;101641.56;;;25.76;51.97
55077;BME280;40971;44.702;11.030;2023-05-25T14:18:18;101647.59;;;25.83;50.11
55077;BME280;40971;44.702;11.030;2023-05-25T14:28:19;101643.72;;;26.08;48.91
55077;BME280;40971;44.702;11.030;2023-05-25T14:38:23;101641.53;;;26.83;47.30
55077;BME280;40971;44.702;11.030;2023-05-25T14:48:24;101643.03;;;25.84;50.04
55077;BME280;40971;44.702;11.030;2023-05-25T14:58:25;101661.84;;;24.81;54.74
55077;BME280;40971;44.702;11.030;2023-05-25T15:08:29;101656.94;;;24.89;55.54
55077;BME280;40971;44.702;11.030;2023-05-25T15:18:31;101662.97;;;25.31;53.74
55077;BME280;40971;44.702;11.030;2023-05-25T15:28:33;101658.38;;;25.43;54.71
55077;BME280;40971;44.702;11.030;2023-05-25T15:38:35;101649.84;;;25.35;56.69
55077;BME280;40971;44.702;11.030;2023-05-25T15:48:37;101644.53;;;25.91;56.87
55077;BME280;40971;44.702;11.030;2023-05-25T15:58:38;101643.38;;;26.16;57.82
55077;BME280;40971;44.702;11.030;2023-05-25T16:08:39;101639.56;;;26.00;59.61
55077;BME280;40971;44.702;11.030;2023-05-25T16:18:41;101631.91;;;25.52;60.08
55077;BME280;40971;44.702;11.030;2023-05-25T16:28:42;101645.59;;;25.62;58.48
55077;BME280;40971;44.702;11.030;2023-05-25T16:38:44;101640.09;;;25.85;59.12
55077;BME280;40971;44.702;11.030;2023-05-25T16:48:46;101644.88;;;25.67;59.92
55077;BME280;40971;44.702;11.030;2023-05-25T16:58:47;101649.63;;;25.48;61.61
55077;BME280;40971;44.702;11.030;2023-05-25T17:08:49;101656.31;;;25.11;64.19
55077;BME280;40971;44.702;11.030;2023-05-25T17:18:51;101651.53;;;24.66;66.60
55077;BME280;40971;44.702;11.030;2023-05-25T17:28:54;101667.31;;;24.10;69.83
55077;BME280;40971;44.702;11.030;2023-05-25T17:38:59;101658.72;;;23.35;72.16
55077;BME280;40971;44.702;11.030;2023-05-25T17:49:01;101667.19;;;22.96;72.66
55077;BME280;40971;44.702;11.030;2023-05-25T17:59:05;101660.88;;;22.59;73.54
55077;BME280;40971;44.702;11.030;2023-05-25T18:09:09;101662.53;;;22.35;73.88
55077;BME280;40971;44.702;11.030;2023-05-25T18:19:12;101665.22;;;22.04;75.17
55077;BME280;40971;44.702;11.030;2023-05-25T18:29:16;101668.66;;;21.67;76.54
55077;BME280;40971;44.702;11.030;2023-05-25T18:39:19;101668.59;;;21.35;77.57
55077;BME280;40971;44.702;11.030;2023-05-25T18:49:21;101682.00;;;21.09;78.37
55077;BME280;40971;44.702;11.030;2023-05-25T18:59:27;101681.41;;;20.87;79.39
55077;BME280;40971;44.702;11.030;2023-05-25T19:09:31;101685.50;;;20.64;81.20
55077;BME280;40971;44.702;11.030;2023-05-25T19:19:34;101686.94;;;20.53;81.20
55077;BME280;40971;44.702;11.030;2023-05-25T19:29:37;101701.13;;;20.41;81.26
55077;BME280;40971;44.702;11.030;2023-05-25T19:39:38;101723.00;;;20.16;81.45
55077;BME280;40971;44.702;11.030;2023-05-25T19:49:42;101736.03;;;19.85;82.13
55077;BME280;40971;44.702;11.030;2023-05-25T19:59:43;101739.47;;;19.38;84.50
55077;BME280;40971;44.702;11.030;2023-05-25T20:09:45;101746.78;;;19.30;84.08
55077;BME280;40971;44.702;11.030;2023-05-25T20:19:47;101761.66;;;19.39;83.30
55077;BME280;40971;44.702;11.030;2023-05-25T20:29:49;101771.44;;;19.32;82.83
55077;BME280;40971;44.702;11.030;2023-05-25T20:39:50;101775.19;;;19.16;83.19
55077;BME280;40971;44.702;11.030;2023-05-25T20:49:54;101771.53;;;18.96;83.17
55077;BME280;40971;44.702;11.030;2023-05-25T20:59:56;101772.91;;;18.64;84.37
55077;BME280;40971;44.702;11.030;2023-05-25T21:10:00;101769.75;;;18.39;85.12
55077;BME280;40971;44.702;11.030;2023-05-25T21:20:05;101766.38;;;18.31;84.72
55077;BME280;40971;44.702;11.030;2023-05-25T21:30:10;101757.34;;;18.32;84.16
55077;BME280;40971;44.702;11.030;2023-05-25T21:40:15;101758.50;;;18.23;83.37
55077;BME280;40971;44.702;11.030;2023-05-25T21:50:18;101756.50;;;17.95;84.11
55077;BME280;40971;44.702;11.030;2023-05-25T22:00:20;101774.88;;;17.90;84.99
55077;BME280;40971;44.702;11.030;2023-05-25T22:10:24;101770.66;;;17.81;84.40
55077;BME280;40971;44.702;11.030;2023-05-25T22:20:26;101780.28;;;17.68;85.19
55077;BME280;40971;44.702;11.030;2023-05-25T22:30:31;101779.56;;;17.59;85.56
55077;BME280;40971;44.702;11.030;2023-05-25T22:40:33;101762.97;;;17.57;85.12
55077;BME280;40971;44.702;11.030;2023-05-25T22:50:35;101767.34;;;17.50;85.19
55077;BME280;40971;44.702;11.030;2023-05-25T23:00:36;101768.41;;;17.26;85.61
55077;BME280;40971;44.702;11.030;2023-05-25T23:10:38;101772.59;;;17.21;85.61
55077;BME280;40971;44.702;11.030;2023-05-25T23:20:40;101755.72;;;16.99;85.75
55077;BME280;40971;44.702;11.030;2023-05-25T23:30:45;101754.75;;;16.92;85.84
55077;BME280;40971;44.702;11.030;2023-05-25T23:40:47;101768.78;;;16.86;85.97
55077;BME280;40971;44.702;11.030;2023-05-25T23:50:49;101767.69;;;16.72;85.91
